Latest Weather Observations for Moruya Airport

IDN60801

Issued at 8:35 pm EST Monday 21 April 2014 (issued every 30 minutes, with the page automatically refreshed every 10 minutes)

About weather observations | Map of weather stations | Latest weather observations for NSW | Other Formats
Station Details ID: 069148 Name: MORUYA AIRPORT AWS Lat: -35.90 Lon: 150.14 Height: 4.0 m
Data from the previous 72 hours. | See also: Recent months for locations in New South Wales
Date/Time
EST
Temp
°C
App
Temp
°C
Dew
Point
Rel
Hum
%
Delta-T
°C
Wind Press
QNH
hPa
Press
MSL
hPa
Rain
since 9 am
mm
Dir
 
Spd
km/h
Gust
km/h
Spd
kts
Gust
kts
21/08:30pm 14.2 13.6 12.2 88 1.1 NW 7 9 4 5 1019.1 - 0.0
21/08:00pm 15.8 14.8 12.4 80 1.9 NW 9 13 5 7 1019.1 - 0.0
21/07:30pm 16.2 14.5 12.4 78 2.1 N 13 17 7 9 1019.1 - 0.0
21/07:00pm 15.6 14.6 12.2 80 1.9 NNW 9 13 5 7 1019.2 - 0.0
21/06:30pm 15.8 15.2 12.4 80 1.9 NNW 7 11 4 6 1019.1 - 0.0
21/06:00pm 16.8 15.7 12.1 74 2.6 NNW 9 13 5 7 1018.9 1018.8 0.0
21/05:30pm 17.7 16.6 11.9 69 3.2 N 9 13 5 7 1018.6 - 0.0
21/05:00pm 18.9 15.9 11.9 64 3.9 NNE 19 22 10 12 1018.3 - 0.0
21/04:30pm 19.5 16.3 11.8 61 4.3 NNE 20 26 11 14 1018.3 - 0.0
21/04:00pm 19.4 16.2 11.9 62 4.2 NNE 20 26 11 14 1018.5 - 0.0
21/03:30pm 20.0 16.9 11.5 58 4.7 NE 19 24 10 13 1018.7 - 0.0
21/03:00pm 20.0 16.5 11.0 56 4.9 NE 20 24 11 13 1018.7 1018.6 0.0
21/02:30pm 20.9 16.7 11.0 53 5.4 NE 24 30 13 16 1018.5 - 0.0
21/02:00pm 20.3 16.6 9.5 50 5.7 NE 19 24 10 13 1018.8 - 0.0
21/01:30pm 20.4 16.8 9.9 51 5.6 NE 19 22 10 12 1019.0 - 0.0
21/01:00pm 20.4 17.2 9.9 51 5.6 ENE 17 22 9 12 1019.1 - 0.0
21/12:30pm 20.3 17.6 8.9 48 6.0 ENE 13 15 7 8 1019.6 - 0.0
21/12:00pm 20.7 18.9 9.6 49 5.9 E 9 13 5 7 1020.3 1020.2 0.0
21/11:30am 19.4 17.0 8.7 50 5.6 ESE 11 13 6 7 1020.5 - 0.0
21/11:00am 19.2 16.8 8.5 50 5.6 E 11 15 6 8 1020.8 - 0.0
21/10:30am 19.3 16.9 8.6 50 5.6 ENE 11 15 6 8 1020.9 - 0.0
21/10:00am 19.2 19.0 9.1 52 5.3 CALM 0 6 0 3 1021.2 - 0.0
21/09:30am 17.4 16.2 11.7 69 3.1 SW 9 11 5 6 1021.3 - 0.0
21/09:00am 15.9 14.4 10.7 71 2.8 SW 9 11 5 6 1021.3 1021.2 0.0
21/08:30am 14.4 12.9 10.6 78 2.0 SW 9 11 5 6 1021.4 - 0.0
21/08:00am 13.0 11.1 10.4 84 1.3 SW 11 13 6 7 1021.0 - 0.0
21/07:30am 11.4 11.6 10.6 95 0.4 CALM 0 0 0 0 1020.6 - 0.0
21/07:00am 9.1 8.8 8.6 97 0.2 CALM 0 4 0 2 1020.3 - 0.0
21/06:30am 9.2 7.6 8.6 96 0.3 W 7 11 4 6 1019.9 - 0.0
21/06:00am 9.4 7.7 8.3 93 0.5 WSW 7 11 4 6 1019.5 1019.4 0.0
21/05:30am 10.5 9.1 8.8 89 0.8 W 6 7 3 4 1019.4 - 0.0
21/05:00am 11.9 10.1 9.3 84 1.3 W 9 13 5 7 1019.4 - 0.0
21/04:30am 11.7 9.9 9.3 85 1.2 WSW 9 11 5 6 1019.0 - 0.0
21/04:00am 11.7 10.3 9.4 86 1.2 WSW 7 9 4 5 1018.6 - 0.0
21/03:30am 11.8 10.0 9.5 86 1.2 SW 9 13 5 7 1018.5 - 0.0
21/03:00am 11.7 9.9 9.4 86 1.2 W 9 13 5 7 1018.3 1018.2 0.0
21/02:30am 12.3 11.1 10.4 88 1.0 WSW 7 9 4 5 1018.5 - 0.0
21/02:00am 12.0 10.2 9.4 84 1.3 W 9 13 5 7 1018.6 - 0.0
21/01:30am 12.1 10.3 9.3 83 1.4 W 9 13 5 7 1018.7 - 0.0
21/01:00am 11.9 10.1 9.5 85 1.2 W 9 11 5 6 1018.7 - 0.0
21/12:30am 12.5 10.4 9.7 83 1.4 W 11 17 6 9 1018.8 - 0.0
21/12:00am 12.2 10.1 9.9 86 1.2 W 11 17 6 9 1018.7 1018.6 0.0
 
Date/Time
EST
Temp
°C
App
Temp
°C
Dew
Point
Rel
Hum
%
Delta-T
°C
Wind Press
QNH
hPa
Press
MSL
hPa
Rain
since 9 am
mm
Dir
 
Spd
km/h
Gust
km/h
Spd
kts
Gust
kts
20/11:30pm 11.4 9.7 9.7 89 0.9 W 9 11 5 6 1018.5 - 0.0
20/11:00pm 11.7 9.9 9.4 86 1.2 W 9 13 5 7 1018.5 - 0.0
20/10:30pm 12.5 10.8 9.7 83 1.4 W 9 11 5 6 1018.6 - 0.0
20/10:00pm 12.9 11.2 9.7 81 1.6 W 9 11 5 6 1018.5 - 0.0
20/09:30pm 12.9 11.2 9.7 81 1.6 W 9 13 5 7 1018.5 - 0.0
20/09:00pm 12.6 10.8 9.6 82 1.5 W 9 11 5 6 1018.2 1018.1 0.0
20/08:30pm 12.8 10.7 9.8 82 1.5 W 11 13 6 7 1018.1 - 0.0
20/08:00pm 13.0 11.3 9.8 81 1.6 W 9 13 5 7 1017.8 - 0.0
20/07:30pm 13.1 11.3 9.5 79 1.8 W 9 13 5 7 1017.5 - 0.0
20/07:00pm 13.2 11.4 9.5 78 1.9 W 9 13 5 7 1017.2 - 0.0
20/06:30pm 12.7 10.8 9.2 79 1.8 W 9 11 5 6 1016.7 - 0.0
20/06:00pm 14.2 12.8 9.6 74 2.4 WSW 7 11 4 6 1016.3 1016.2 0.0
20/05:30pm 15.7 14.3 9.4 66 3.3 SW 7 9 4 5 1015.8 - 0.0
20/05:00pm 17.7 15.0 9.1 57 4.5 S 13 17 7 9 1015.4 - 0.0
20/04:30pm 18.6 15.5 8.8 53 5.1 SSE 15 19 8 10 1015.1 - 0.0
20/04:00pm 19.0 15.9 8.9 52 5.3 SSE 15 20 8 11 1014.9 - 0.0
20/03:30pm 19.1 16.2 9.6 54 5.0 SE 15 20 8 11 1014.7 - 0.0
20/03:00pm 19.6 16.6 9.2 51 5.5 SE 15 20 8 11 1014.6 1014.5 0.0
20/02:30pm 20.1 16.7 7.8 45 6.3 E 15 17 8 9 1014.3 - 0.0
20/02:00pm 20.0 17.0 7.7 45 6.3 ESE 13 17 7 9 1014.4 - 0.0
20/01:30pm 19.8 16.2 8.5 48 5.9 ESE 17 20 9 11 1014.5 - 0.0
20/01:00pm 19.9 16.1 7.6 45 6.3 E 17 20 9 11 1014.7 - 0.0
20/12:30pm 20.4 17.1 6.4 40 7.0 SSW 13 17 7 9 1015.0 - 0.0
20/12:00pm 20.1 16.7 5.7 39 7.1 SW 13 19 7 10 1015.4 1015.3 0.0
20/11:30am 19.8 16.5 6.5 42 6.7 WSW 13 19 7 10 1016.0 - 0.0
20/11:00am 19.8 17.1 7.5 45 6.3 W 11 19 6 10 1016.5 - 0.0
20/10:30am 19.0 16.2 6.8 45 6.1 WNW 11 20 6 11 1016.7 - 0.0
20/10:00am 18.4 18.2 8.9 54 4.9 CALM 0 7 0 4 1017.0 - 0.0
20/09:30am 17.0 15.6 9.7 62 3.8 W 7 13 4 7 1017.1 - 0.0
20/09:00am 15.8 14.7 10.1 69 3.0 W 6 9 3 5 1017.3 1017.2 0.0
20/08:30am 13.5 12.8 9.9 79 1.9 WNW 4 6 2 3 1017.4 - 0.0
20/08:00am 11.2 11.5 10.9 98 0.2 CALM 0 0 0 0 1017.5 - 0.0
20/07:30am 8.5 8.1 8.2 98 0.1 CALM 0 0 0 0 1017.5 - 0.0
20/07:00am 6.7 5.9 6.4 98 0.1 CALM 0 4 0 2 1017.3 - 0.0
20/06:30am 6.5 4.9 6.2 98 0.1 WSW 4 6 2 3 1017.0 - 0.0
20/06:00am 6.8 5.2 6.5 98 0.1 N 4 9 2 5 1016.8 1016.7 0.0
20/05:30am 7.4 6.7 7.1 98 0.1 CALM 0 0 0 0 1016.8 - 0.0
20/05:00am 7.4 6.7 7.1 98 0.1 CALM 0 0 0 0 1016.8 - 0.0
20/04:30am 6.8 6.0 6.4 97 0.2 CALM 0 0 0 0 1016.7 - 0.0
20/04:00am 7.5 6.8 6.8 95 0.3 CALM 0 0 0 0 1016.7 - 0.0
20/03:30am 8.4 7.1 7.6 95 0.4 NW 4 6 2 3 1016.7 - 0.0
20/03:00am 9.3 8.1 7.9 91 0.7 W 4 6 2 3 1016.8 1016.7 0.0
20/02:30am 10.1 8.5 7.9 86 1.1 WNW 6 7 3 4 1017.1 - 0.0
20/02:00am 11.4 10.3 8.4 82 1.5 W 4 7 2 4 1017.3 - 0.0
20/01:30am 11.7 11.2 8.0 78 1.8 CALM 0 0 0 0 1017.4 - 0.0
20/01:00am 11.9 10.6 7.8 76 2.0 W 4 7 2 4 1017.6 - 0.0
20/12:30am 11.7 11.2 7.8 77 1.9 CALM 0 2 0 1 1017.8 - 0.0
20/12:00am 12.3 10.3 7.0 70 2.5 W 7 11 4 6 1018.0 1017.9 0.0
 
Date/Time
EST
Temp
°C
App
Temp
°C
Dew
Point
Rel
Hum
%
Delta-T
°C
Wind Press
QNH
hPa
Press
MSL
hPa
Rain
since 9 am
mm
Dir
 
Spd
km/h
Gust
km/h
Spd
kts
Gust
kts
19/11:30pm 12.6 10.2 6.9 68 2.7 W 9 13 5 7 1018.0 - 0.0
19/11:00pm 12.3 10.3 7.2 71 2.5 W 7 11 4 6 1018.0 - 0.0
19/10:30pm 12.6 10.2 7.1 69 2.7 W 9 15 5 8 1018.2 - 0.0
19/10:00pm 11.9 9.5 7.2 73 2.3 W 9 13 5 7 1018.3 - 0.0
19/09:30pm 10.9 8.5 6.8 76 1.9 W 9 13 5 7 1018.3 - 0.0
19/09:00pm 9.6 7.6 7.0 84 1.2 W 7 9 4 5 1018.2 1018.1 0.0
19/08:30pm 10.9 8.4 6.6 75 2.0 WNW 9 11 5 6 1018.1 - 0.0
19/08:00pm 12.4 9.7 5.6 63 3.2 WSW 9 13 5 7 1018.0 - 0.0
19/07:30pm 12.8 9.7 5.7 62 3.3 SW 11 13 6 7 1017.6 - 0.0
19/07:00pm 12.5 10.3 6.3 66 2.9 SW 7 13 4 7 1017.4 - 0.0
19/06:30pm 13.6 10.6 6.0 60 3.6 SW 11 11 6 6 1017.1 - 0.0
19/06:00pm 15.2 12.5 5.7 53 4.5 SSW 9 13 5 7 1016.7 1016.6 0.0
19/05:30pm 16.4 13.0 6.0 50 5.0 S 13 15 7 8 1016.3 - 0.0
19/05:00pm 17.6 14.2 5.9 46 5.7 SSE 13 19 7 10 1016.0 - 0.0
19/04:30pm 18.3 13.9 6.5 46 5.9 S 19 22 10 12 1015.7 - 0.0
19/04:00pm 18.8 14.3 6.0 43 6.3 SSE 19 28 10 15 1015.5 - 0.0
19/03:30pm 19.2 14.7 6.3 43 6.4 SSE 19 26 10 14 1015.4 - 0.0
19/03:00pm 19.5 16.1 5.9 41 6.7 SE 13 19 7 10 1015.3 1015.2 0.0
19/02:30pm 19.7 16.4 6.4 42 6.6 E 13 19 7 10 1015.3 - 0.0
19/02:00pm 19.8 16.4 7.5 45 6.3 E 15 19 8 10 1015.2 - 0.0
19/01:30pm 19.3 15.6 6.4 43 6.4 ESE 15 20 8 11 1015.3 - 0.0
19/01:00pm 19.6 16.3 4.5 37 7.3 SSW 11 19 6 10 1015.6 - 0.0
19/12:30pm 19.4 15.4 4.7 38 7.1 SSW 15 26 8 14 1016.0 - 0.0
19/12:00pm 19.5 15.4 4.4 37 7.2 SW 15 26 8 14 1016.3 1016.2 0.0
19/11:30am 19.5 15.0 4.4 37 7.2 SW 17 28 9 15 1016.7 - 0.0
19/11:00am 19.0 14.5 4.0 37 7.1 SW 17 26 9 14 1016.9 - 0.0
19/10:30am 18.5 15.8 5.4 42 6.4 WSW 9 20 5 11 1017.3 - 0.0
19/10:00am 17.5 14.1 4.1 41 6.3 W 11 19 6 10 1017.4 - 0.0
19/09:30am 16.7 14.2 4.7 45 5.7 W 7 11 4 6 1017.4 - 0.0
19/09:00am 15.5 12.8 5.4 51 4.8 WSW 9 15 5 8 1017.5 1017.4 0.0
19/08:30am 14.2 10.9 4.5 52 4.5 W 11 17 6 9 1017.4 - 0.0
19/08:00am 13.3 10.8 4.5 55 4.0 W 7 13 4 7 1017.4 - 0.0
19/07:30am 11.7 9.2 4.9 63 3.1 W 7 11 4 6 1017.3 - 0.0
19/07:00am 8.4 6.0 5.3 81 1.4 WNW 7 9 4 5 1016.9 - 0.0
19/06:30am 7.3 4.8 4.6 83 1.2 WNW 7 11 4 6 1016.8 - 0.0
19/06:00am 9.1 6.3 3.3 67 2.5 W 7 11 4 6 1016.4 1016.3 0.0
19/05:30am 10.0 6.9 3.5 64 2.8 WNW 9 13 5 7 1016.2 - 0.0
19/05:00am 10.4 7.4 4.1 65 2.8 W 9 13 5 7 1016.0 - 0.0
19/04:30am 10.9 7.6 4.4 64 2.9 W 11 15 6 8 1016.1 - 0.0
19/04:00am 11.7 8.0 4.4 61 3.3 W 13 19 7 10 1015.8 - 0.0
19/03:30am 11.0 8.1 4.9 66 2.8 W 9 15 5 8 1015.7 - 0.0
19/03:00am 12.6 9.8 5.1 60 3.5 SSW 9 13 5 7 1015.8 1015.7 0.0
19/02:30am 13.6 8.7 5.0 56 4.0 S 20 26 11 14 1015.6 - 0.0
19/02:00am 14.0 9.3 6.1 59 3.8 S 20 24 11 13 1015.5 - 0.0
19/01:30am 14.0 10.5 7.1 63 3.4 S 15 20 8 11 1015.4 - 0.0
19/01:00am 14.0 10.7 8.2 68 2.9 SSE 15 17 8 9 1015.6 - 0.0
19/12:30am 14.6 11.2 7.6 63 3.5 S 15 17 8 9 1015.3 - 0.0
19/12:00am 15.5 12.0 7.0 57 4.2 SSW 15 20 8 11 1015.1 1015.0 0.0
 
Date/Time
EST
Temp
°C
App
Temp
°C
Dew
Point
Rel
Hum
%
Delta-T
°C
Wind Press
QNH
hPa
Press
MSL
hPa
Rain
since 9 am
mm
Dir
 
Spd
km/h
Gust
km/h
Spd
kts
Gust
kts
18/11:30pm 16.1 12.8 8.1 59 4.0 S 15 19 8 10 1015.1 - 0.0
18/11:00pm 16.3 12.4 8.8 61 3.8 S 19 22 10 12 1014.7 - 0.0
18/10:30pm 16.1 13.4 9.1 63 3.6 SSW 13 19 7 10 1014.6 - 0.0
18/10:00pm 16.1 13.5 9.5 65 3.4 SW 13 19 7 10 1014.5 - 0.0
18/09:30pm 16.8 13.2 10.0 64 3.6 SW 19 30 10 16 1014.2 - 0.0
18/09:00pm 17.2 14.7 11.0 67 3.3 SSW 15 24 8 13 1013.8 1013.7 0.0

Other Formats:

Comma delimited format used in spreadsheet applications
http://www.bom.gov.au/fwo/IDN60801/IDN60801.95937.axf

JavaScript Object Notation format (JSON) in row-major order
http://www.bom.gov.au/fwo/IDN60801/IDN60801.95937.json